sensor_id;sensor_type;location;lat;lon;timestamp;temperature;humidity
3037;DHT22;1528;52.550;13.408;2024-03-02T00:01:49;9.70;49.10
3037;DHT22;1528;52.550;13.408;2024-03-02T00:04:34;9.70;49.10
3037;DHT22;1528;52.550;13.408;2024-03-02T00:07:20;9.70;49.10
3037;DHT22;1528;52.550;13.408;2024-03-02T00:10:08;9.80;49.20
3037;DHT22;1528;52.550;13.408;2024-03-02T00:12:55;9.80;49.30
3037;DHT22;1528;52.550;13.408;2024-03-02T00:15:46;9.80;49.20
3037;DHT22;1528;52.550;13.408;2024-03-02T00:18:33;9.80;49.20
3037;DHT22;1528;52.550;13.408;2024-03-02T00:21:19;9.80;49.20
3037;DHT22;1528;52.550;13.408;2024-03-02T00:24:17;9.80;49.00
3037;DHT22;1528;52.550;13.408;2024-03-02T00:27:06;9.80;49.20
3037;DHT22;1528;52.550;13.408;2024-03-02T00:29:55;9.80;49.20
3037;DHT22;1528;52.550;13.408;2024-03-02T00:32:43;9.80;49.20
3037;DHT22;1528;52.550;13.408;2024-03-02T00:35:29;9.80;49.20
3037;DHT22;1528;52.550;13.408;2024-03-02T00:38:14;9.80;49.20
3037;DHT22;1528;52.550;13.408;2024-03-02T00:41:05;9.80;49.20
3037;DHT22;1528;52.550;13.408;2024-03-02T00:43:59;9.80;49.20
3037;DHT22;1528;52.550;13.408;2024-03-02T00:46:45;9.80;49.20
3037;DHT22;1528;52.550;13.408;2024-03-02T00:49:30;9.80;49.30
3037;DHT22;1528;52.550;13.408;2024-03-02T00:52:16;9.80;49.90
3037;DHT22;1528;52.550;13.408;2024-03-02T00:55:02;9.80;49.20
3037;DHT22;1528;52.550;13.408;2024-03-02T00:57:49;9.80;49.20
3037;DHT22;1528;52.550;13.408;2024-03-02T01:00:36;9.80;49.20
3037;DHT22;1528;52.550;13.408;2024-03-02T01:03:21;9.90;49.30
3037;DHT22;1528;52.550;13.408;2024-03-02T01:06:07;9.80;49.20
3037;DHT22;1528;52.550;13.408;2024-03-02T01:08:53;9.90;49.30
3037;DHT22;1528;52.550;13.408;2024-03-02T01:11:39;9.90;49.30
3037;DHT22;1528;52.550;13.408;2024-03-02T01:14:24;9.90;49.30
3037;DHT22;1528;52.550;13.408;2024-03-02T01:17:11;9.90;49.60
3037;DHT22;1528;52.550;13.408;2024-03-02T01:19:58;9.90;49.50
3037;DHT22;1528;52.550;13.408;2024-03-02T01:22:43;10.00;48.60
3037;DHT22;1528;52.550;13.408;2024-03-02T01:25:29;10.00;48.70
3037;DHT22;1528;52.550;13.408;2024-03-02T01:28:15;10.00;49.10
3037;DHT22;1528;52.550;13.408;2024-03-02T01:31:00;10.00;48.80
3037;DHT22;1528;52.550;13.408;2024-03-02T01:33:47;9.90;50.10
3037;DHT22;1528;52.550;13.408;2024-03-02T01:36:33;9.90;50.10
3037;DHT22;1528;52.550;13.408;2024-03-02T01:39:18;9.90;50.40
3037;DHT22;1528;52.550;13.408;2024-03-02T01:42:04;9.90;50.50
3037;DHT22;1528;52.550;13.408;2024-03-02T01:44:50;10.00;50.00
3037;DHT22;1528;52.550;13.408;2024-03-02T01:47:36;10.00;50.30
3037;DHT22;1528;52.550;13.408;2024-03-02T01:50:27;10.00;49.80
3037;DHT22;1528;52.550;13.408;2024-03-02T01:53:12;10.00;49.90
3037;DHT22;1528;52.550;13.408;2024-03-02T01:55:58;9.90;51.10
3037;DHT22;1528;52.550;13.408;2024-03-02T01:58:44;9.90;51.60
3037;DHT22;1528;52.550;13.408;2024-03-02T02:01:29;9.90;51.90
3037;DHT22;1528;52.550;13.408;2024-03-02T02:04:15;9.90;52.10
3037;DHT22;1528;52.550;13.408;2024-03-02T02:07:02;9.90;52.30
3037;DHT22;1528;52.550;13.408;2024-03-02T02:09:48;9.90;52.60
3037;DHT22;1528;52.550;13.408;2024-03-02T02:12:33;9.90;53.10
3037;DHT22;1528;52.550;13.408;2024-03-02T02:15:26;9.90;53.10
3037;DHT22;1528;52.550;13.408;2024-03-02T02:18:12;9.90;53.20
3037;DHT22;1528;52.550;13.408;2024-03-02T02:20:58;9.90;53.20
3037;DHT22;1528;52.550;13.408;2024-03-02T02:23:44;9.90;53.40
3037;DHT22;1528;52.550;13.408;2024-03-02T02:26:32;9.90;53.40
3037;DHT22;1528;52.550;13.408;2024-03-02T02:29:18;9.90;53.60
3037;DHT22;1528;52.550;13.408;2024-03-02T02:32:04;10.00;52.80
3037;DHT22;1528;52.550;13.408;2024-03-02T02:34:52;10.00;52.80
3037;DHT22;1528;52.550;13.408;2024-03-02T02:37:38;10.00;53.00
3037;DHT22;1528;52.550;13.408;2024-03-02T02:40:25;9.90;53.90
3037;DHT22;1528;52.550;13.408;2024-03-02T02:43:11;10.00;53.80
3037;DHT22;1528;52.550;13.408;2024-03-02T02:45:57;10.00;53.80
3037;DHT22;1528;52.550;13.408;2024-03-02T02:48:42;10.00;53.80
3037;DHT22;1528;52.550;13.408;2024-03-02T02:51:28;10.10;54.10
3037;DHT22;1528;52.550;13.408;2024-03-02T02:54:14;10.20;53.90
3037;DHT22;1528;52.550;13.408;2024-03-02T02:57:01;10.30;53.80
3037;DHT22;1528;52.550;13.408;2024-03-02T02:59:46;10.40;53.90
3037;DHT22;1528;52.550;13.408;2024-03-02T03:02:32;10.40;54.10
3037;DHT22;1528;52.550;13.408;2024-03-02T03:05:18;10.40;54.20
3037;DHT22;1528;52.550;13.408;2024-03-02T03:08:04;10.40;54.30
3037;DHT22;1528;52.550;13.408;2024-03-02T03:10:50;10.40;54.50
3037;DHT22;1528;52.550;13.408;2024-03-02T03:13:37;10.40;54.70
3037;DHT22;1528;52.550;13.408;2024-03-02T03:16:22;10.40;54.90
3037;DHT22;1528;52.550;13.408;2024-03-02T03:19:08;10.40;55.00
3037;DHT22;1528;52.550;13.408;2024-03-02T03:21:54;10.40;55.20
3037;DHT22;1528;52.550;13.408;2024-03-02T03:24:39;10.40;56.10
3037;DHT22;1528;52.550;13.408;2024-03-02T03:27:25;10.40;55.60
3037;DHT22;1528;52.550;13.408;2024-03-02T03:30:12;10.60;55.80
3037;DHT22;1528;52.550;13.408;2024-03-02T03:32:58;10.40;55.70
3037;DHT22;1528;52.550;13.408;2024-03-02T03:35:44;10.60;55.90
3037;DHT22;1528;52.550;13.408;2024-03-02T03:38:29;10.50;55.80
3037;DHT22;1528;52.550;13.408;2024-03-02T03:41:15;10.50;56.00
3037;DHT22;1528;52.550;13.408;2024-03-02T03:44:01;10.50;56.50
3037;DHT22;1528;52.550;13.408;2024-03-02T03:46:48;10.50;56.00
3037;DHT22;1528;52.550;13.408;2024-03-02T03:49:34;10.50;56.10
3037;DHT22;1528;52.550;13.408;2024-03-02T03:52:19;10.50;56.00
3037;DHT22;1528;52.550;13.408;2024-03-02T03:55:06;10.50;55.90
3037;DHT22;1528;52.550;13.408;2024-03-02T03:57:51;10.50;55.90
3037;DHT22;1528;52.550;13.408;2024-03-02T04:00:37;10.60;56.00
3037;DHT22;1528;52.550;13.408;2024-03-02T04:03:24;10.60;56.50
3037;DHT22;1528;52.550;13.408;2024-03-02T04:06:09;10.60;55.80
3037;DHT22;1528;52.550;13.408;2024-03-02T04:08:55;10.60;55.90
3037;DHT22;1528;52.550;13.408;2024-03-02T04:11:41;10.60;56.00
3037;DHT22;1528;52.550;13.408;2024-03-02T04:14:26;10.50;55.90
3037;DHT22;1528;52.550;13.408;2024-03-02T04:17:12;10.60;55.80
3037;DHT22;1528;52.550;13.408;2024-03-02T04:19:59;10.60;55.90
3037;DHT22;1528;52.550;13.408;2024-03-02T04:22:44;10.60;56.40
3037;DHT22;1528;52.550;13.408;2024-03-02T04:25:30;10.60;56.40
3037;DHT22;1528;52.550;13.408;2024-03-02T04:28:16;10.60;56.40
3037;DHT22;1528;52.550;13.408;2024-03-02T04:31:01;10.60;56.30
3037;DHT22;1528;52.550;13.408;2024-03-02T04:33:47;10.60;56.40
3037;DHT22;1528;52.550;13.408;2024-03-02T04:36:34;10.60;56.40
3037;DHT22;1528;52.550;13.408;2024-03-02T04:39:19;10.60;56.50
3037;DHT22;1528;52.550;13.408;2024-03-02T04:42:05;10.60;56.70
3037;DHT22;1528;52.550;13.408;2024-03-02T04:44:50;10.60;56.70
3037;DHT22;1528;52.550;13.408;2024-03-02T04:47:36;10.60;56.80
3037;DHT22;1528;52.550;13.408;2024-03-02T04:50:22;10.60;56.80
3037;DHT22;1528;52.550;13.408;2024-03-02T04:53:09;10.60;56.90
3037;DHT22;1528;52.550;13.408;2024-03-02T04:55:54;10.60;57.00
3037;DHT22;1528;52.550;13.408;2024-03-02T04:58:57;10.60;56.90
3037;DHT22;1528;52.550;13.408;2024-03-02T05:01:43;10.60;57.10
3037;DHT22;1528;52.550;13.408;2024-03-02T05:04:28;10.60;57.00
3037;DHT22;1528;52.550;13.408;2024-03-02T05:07:14;10.60;57.30
3037;DHT22;1528;52.550;13.408;2024-03-02T05:10:01;10.70;57.30
3037;DHT22;1528;52.550;13.408;2024-03-02T05:12:47;10.70;57.30
3037;DHT22;1528;52.550;13.408;2024-03-02T05:15:41;10.70;57.40
3037;DHT22;1528;52.550;13.408;2024-03-02T05:18:27;10.70;57.70
3037;DHT22;1528;52.550;13.408;2024-03-02T05:21:13;10.70;57.70
3037;DHT22;1528;52.550;13.408;2024-03-02T05:23:58;10.70;58.20
3037;DHT22;1528;52.550;13.408;2024-03-02T05:26:45;10.70;57.70
3037;DHT22;1528;52.550;13.408;2024-03-02T05:29:31;10.70;57.30
3037;DHT22;1528;52.550;13.408;2024-03-02T05:32:16;10.70;57.30
3037;DHT22;1528;52.550;13.408;2024-03-02T05:35:02;10.80;57.40
3037;DHT22;1528;52.550;13.408;2024-03-02T05:37:49;10.70;57.40
3037;DHT22;1528;52.550;13.408;2024-03-02T05:40:35;10.80;57.40
3037;DHT22;1528;52.550;13.408;2024-03-02T05:43:22;10.80;57.10
3037;DHT22;1528;52.550;13.408;2024-03-02T05:46:07;10.80;57.40
3037;DHT22;1528;52.550;13.408;2024-03-02T05:48:53;10.80;56.80
3037;DHT22;1528;52.550;13.408;2024-03-02T05:51:38;10.70;56.60
3037;DHT22;1528;52.550;13.408;2024-03-02T05:54:24;10.70;56.50
3037;DHT22;1528;52.550;13.408;2024-03-02T05:57:09;10.70;56.50
3037;DHT22;1528;52.550;13.408;2024-03-02T06:00:19;10.60;56.80
3037;DHT22;1528;52.550;13.408;2024-03-02T06:03:04;10.60;56.60
3037;DHT22;1528;52.550;13.408;2024-03-02T06:05:51;10.60;56.70
3037;DHT22;1528;52.550;13.408;2024-03-02T06:08:38;10.60;57.30
3037;DHT22;1528;52.550;13.408;2024-03-02T06:11:24;10.60;56.60
3037;DHT22;1528;52.550;13.408;2024-03-02T06:14:09;10.60;56.70
3037;DHT22;1528;52.550;13.408;2024-03-02T06:16:56;10.60;56.80
3037;DHT22;1528;52.550;13.408;2024-03-02T06:19:43;10.60;56.40
3037;DHT22;1528;52.550;13.408;2024-03-02T06:22:29;10.60;56.00
3037;DHT22;1528;52.550;13.408;2024-03-02T06:25:14;10.60;56.20
3037;DHT22;1528;52.550;13.408;2024-03-02T06:28:00;10.60;56.10
3037;DHT22;1528;52.550;13.408;2024-03-02T06:30:47;10.70;56.10
3037;DHT22;1528;52.550;13.408;2024-03-02T06:33:34;10.60;56.00
3037;DHT22;1528;52.550;13.408;2024-03-02T06:36:19;10.60;55.60
3037;DHT22;1528;52.550;13.408;2024-03-02T06:39:05;10.60;55.60
3037;DHT22;1528;52.550;13.408;2024-03-02T06:41:50;10.60;55.60
3037;DHT22;1528;52.550;13.408;2024-03-02T06:44:36;10.60;55.40
3037;DHT22;1528;52.550;13.408;2024-03-02T06:47:22;10.70;55.60
3037;DHT22;1528;52.550;13.408;2024-03-02T06:50:09;10.70;55.20
3037;DHT22;1528;52.550;13.408;2024-03-02T06:52:55;10.70;54.90
3037;DHT22;1528;52.550;13.408;2024-03-02T06:55:41;10.70;54.70
3037;DHT22;1528;52.550;13.408;2024-03-02T06:58:27;10.80;54.80
3037;DHT22;1528;52.550;13.408;2024-03-02T07:01:12;10.80;54.70
3037;DHT22;1528;52.550;13.408;2024-03-02T07:03:58;10.90;55.20
3037;DHT22;1528;52.550;13.408;2024-03-02T07:06:45;10.90;54.10
3037;DHT22;1528;52.550;13.408;2024-03-02T07:09:31;10.90;54.50
3037;DHT22;1528;52.550;13.408;2024-03-02T07:12:17;10.90;53.60
3037;DHT22;1528;52.550;13.408;2024-03-02T07:15:03;11.00;53.50
3037;DHT22;1528;52.550;13.408;2024-03-02T07:18:06;11.00;53.10
3037;DHT22;1528;52.550;13.408;2024-03-02T07:21:00;11.00;52.90
3037;DHT22;1528;52.550;13.408;2024-03-02T07:23:48;11.00;52.70
3037;DHT22;1528;52.550;13.408;2024-03-02T07:26:34;11.00;52.60
3037;DHT22;1528;52.550;13.408;2024-03-02T07:29:20;11.00;52.40
3037;DHT22;1528;52.550;13.408;2024-03-02T07:32:07;11.00;52.40
3037;DHT22;1528;52.550;13.408;2024-03-02T07:34:52;11.00;52.20
3037;DHT22;1528;52.550;13.408;2024-03-02T07:37:44;11.00;53.00
3037;DHT22;1528;52.550;13.408;2024-03-02T07:40:31;11.00;52.20
3037;DHT22;1528;52.550;13.408;2024-03-02T07:43:17;11.10;51.80
3037;DHT22;1528;52.550;13.408;2024-03-02T07:46:06;11.20;51.60
3037;DHT22;1528;52.550;13.408;2024-03-02T07:48:52;11.10;51.60
3037;DHT22;1528;52.550;13.408;2024-03-02T07:51:41;11.20;51.50
3037;DHT22;1528;52.550;13.408;2024-03-02T07:54:27;11.20;51.30
3037;DHT22;1528;52.550;13.408;2024-03-02T07:57:14;11.20;51.40
3037;DHT22;1528;52.550;13.408;2024-03-02T07:59:59;11.20;51.20
3037;DHT22;1528;52.550;13.408;2024-03-02T08:02:45;11.20;51.10
3037;DHT22;1528;52.550;13.408;2024-03-02T08:05:31;11.10;51.10
3037;DHT22;1528;52.550;13.408;2024-03-02T08:08:17;11.20;51.10
3037;DHT22;1528;52.550;13.408;2024-03-02T08:11:03;11.20;51.00
3037;DHT22;1528;52.550;13.408;2024-03-02T08:13:50;11.20;51.00
3037;DHT22;1528;52.550;13.408;2024-03-02T08:16:39;11.20;50.50
3037;DHT22;1528;52.550;13.408;2024-03-02T08:19:27;11.20;50.60
3037;DHT22;1528;52.550;13.408;2024-03-02T08:22:14;11.20;50.80
3037;DHT22;1528;52.550;13.408;2024-03-02T08:25:02;11.20;50.60
3037;DHT22;1528;52.550;13.408;2024-03-02T08:27:50;11.20;50.60
3037;DHT22;1528;52.550;13.408;2024-03-02T08:30:43;11.20;50.70
3037;DHT22;1528;52.550;13.408;2024-03-02T08:33:29;11.20;50.80
3037;DHT22;1528;52.550;13.408;2024-03-02T08:36:15;11.30;50.70
3037;DHT22;1528;52.550;13.408;2024-03-02T08:39:00;11.30;50.70
3037;DHT22;1528;52.550;13.408;2024-03-02T08:41:47;11.30;50.40
3037;DHT22;1528;52.550;13.408;2024-03-02T08:44:33;11.30;50.40
3037;DHT22;1528;52.550;13.408;2024-03-02T08:47:23;11.30;50.30
3037;DHT22;1528;52.550;13.408;2024-03-02T08:50:09;11.30;50.10
3037;DHT22;1528;52.550;13.408;2024-03-02T08:52:57;11.30;49.80
3037;DHT22;1528;52.550;13.408;2024-03-02T08:55:43;11.30;49.30
3037;DHT22;1528;52.550;13.408;2024-03-02T08:58:29;11.30;49.30
3037;DHT22;1528;52.550;13.408;2024-03-02T09:01:29;11.20;49.30
3037;DHT22;1528;52.550;13.408;2024-03-02T09:04:17;11.20;49.40
3037;DHT22;1528;52.550;13.408;2024-03-02T09:07:18;11.20;49.20
3037;DHT22;1528;52.550;13.408;2024-03-02T09:10:23;11.20;49.00
3037;DHT22;1528;52.550;13.408;2024-03-02T09:13:22;11.30;49.40
3037;DHT22;1528;52.550;13.408;2024-03-02T09:16:49;11.20;49.00
3037;DHT22;1528;52.550;13.408;2024-03-02T09:19:52;11.20;49.10
3037;DHT22;1528;52.550;13.408;2024-03-02T09:22:54;11.10;49.30
3037;DHT22;1528;52.550;13.408;2024-03-02T09:25:46;11.10;49.40
3037;DHT22;1528;52.550;13.408;2024-03-02T09:28:51;11.10;50.10
3037;DHT22;1528;52.550;13.408;2024-03-02T09:31:41;11.20;49.50
3037;DHT22;1528;52.550;13.408;2024-03-02T09:34:27;11.20;49.50
3037;DHT22;1528;52.550;13.408;2024-03-02T09:37:20;11.30;49.60
3037;DHT22;1528;52.550;13.408;2024-03-02T09:40:13;11.40;49.60
3037;DHT22;1528;52.550;13.408;2024-03-02T09:43:28;11.60;49.20
3037;DHT22;1528;52.550;13.408;2024-03-02T09:46:31;11.70;48.30
3037;DHT22;1528;52.550;13.408;2024-03-02T09:49:24;11.90;47.90
3037;DHT22;1528;52.550;13.408;2024-03-02T09:52:22;12.10;47.40
3037;DHT22;1528;52.550;13.408;2024-03-02T09:55:12;12.30;47.50
3037;DHT22;1528;52.550;13.408;2024-03-02T09:58:06;12.50;46.30
3037;DHT22;1528;52.550;13.408;2024-03-02T10:00:59;12.70;45.70
3037;DHT22;1528;52.550;13.408;2024-03-02T10:03:52;12.90;45.50
3037;DHT22;1528;52.550;13.408;2024-03-02T10:06:42;13.00;44.40
3037;DHT22;1528;52.550;13.408;2024-03-02T10:09:32;13.30;43.50
3037;DHT22;1528;52.550;13.408;2024-03-02T10:12:18;13.40;43.20
3037;DHT22;1528;52.550;13.408;2024-03-02T10:15:05;13.60;42.20
3037;DHT22;1528;52.550;13.408;2024-03-02T10:17:51;13.70;41.00
3037;DHT22;1528;52.550;13.408;2024-03-02T10:20:37;13.70;40.60
3037;DHT22;1528;52.550;13.408;2024-03-02T10:23:23;13.80;40.10
3037;DHT22;1528;52.550;13.408;2024-03-02T10:26:16;13.90;39.60
3037;DHT22;1528;52.550;13.408;2024-03-02T10:29:03;14.00;39.60
3037;DHT22;1528;52.550;13.408;2024-03-02T10:31:48;14.10;39.00
3037;DHT22;1528;52.550;13.408;2024-03-02T10:34:34;14.10;38.30
3037;DHT22;1528;52.550;13.408;2024-03-02T10:37:21;14.10;38.00
3037;DHT22;1528;52.550;13.408;2024-03-02T10:40:08;14.10;37.30
3037;DHT22;1528;52.550;13.408;2024-03-02T10:42:57;14.10;37.10
3037;DHT22;1528;52.550;13.408;2024-03-02T10:45:45;14.10;37.80
3037;DHT22;1528;52.550;13.408;2024-03-02T10:48:33;14.10;36.30
3037;DHT22;1528;52.550;13.408;2024-03-02T10:51:20;14.10;36.50
3037;DHT22;1528;52.550;13.408;2024-03-02T10:54:06;14.10;36.20
3037;DHT22;1528;52.550;13.408;2024-03-02T10:56:53;14.10;35.60
3037;DHT22;1528;52.550;13.408;2024-03-02T10:59:49;14.00;34.90
3037;DHT22;1528;52.550;13.408;2024-03-02T11:02:38;14.00;35.40
3037;DHT22;1528;52.550;13.408;2024-03-02T11:05:27;13.90;35.00
3037;DHT22;1528;52.550;13.408;2024-03-02T11:08:17;13.90;34.70
3037;DHT22;1528;52.550;13.408;2024-03-02T11:11:07;14.00;35.20
3037;DHT22;1528;52.550;13.408;2024-03-02T11:14:01;14.10;35.20
3037;DHT22;1528;52.550;13.408;2024-03-02T11:16:53;14.20;34.80
3037;DHT22;1528;52.550;13.408;2024-03-02T11:19:40;14.20;34.40
3037;DHT22;1528;52.550;13.408;2024-03-02T11:22:26;14.20;34.50
3037;DHT22;1528;52.550;13.408;2024-03-02T11:25:23;14.20;34.60
3037;DHT22;1528;52.550;13.408;2024-03-02T11:28:09;14.30;34.60
3037;DHT22;1528;52.550;13.408;2024-03-02T11:30:54;14.50;34.90
3037;DHT22;1528;52.550;13.408;2024-03-02T11:33:41;14.50;34.30
3037;DHT22;1528;52.550;13.408;2024-03-02T11:36:27;14.50;32.90
3037;DHT22;1528;52.550;13.408;2024-03-02T11:39:13;14.50;32.80
3037;DHT22;1528;52.550;13.408;2024-03-02T11:42:00;14.40;32.60
3037;DHT22;1528;52.550;13.408;2024-03-02T11:44:48;14.40;33.10
3037;DHT22;1528;52.550;13.408;2024-03-02T11:47:35;14.50;33.00
3037;DHT22;1528;52.550;13.408;2024-03-02T11:50:30;14.60;32.90
3037;DHT22;1528;52.550;13.408;2024-03-02T11:53:16;14.80;32.20
3037;DHT22;1528;52.550;13.408;2024-03-02T11:56:02;14.90;31.40
3037;DHT22;1528;52.550;13.408;2024-03-02T11:58:53;14.80;30.40
3037;DHT22;1528;52.550;13.408;2024-03-02T12:01:39;14.80;30.80
3037;DHT22;1528;52.550;13.408;2024-03-02T12:04:25;14.80;31.10
3037;DHT22;1528;52.550;13.408;2024-03-02T12:07:12;15.00;31.30
3037;DHT22;1528;52.550;13.408;2024-03-02T12:10:03;15.10;30.50
3037;DHT22;1528;52.550;13.408;2024-03-02T12:12:55;15.20;29.40
3037;DHT22;1528;52.550;13.408;2024-03-02T12:15:42;15.30;29.60
3037;DHT22;1528;52.550;13.408;2024-03-02T12:18:28;15.30;28.90
3037;DHT22;1528;52.550;13.408;2024-03-02T12:21:14;15.30;29.20
3037;DHT22;1528;52.550;13.408;2024-03-02T12:24:01;15.30;28.60
3037;DHT22;1528;52.550;13.408;2024-03-02T12:26:47;15.30;28.90
3037;DHT22;1528;52.550;13.408;2024-03-02T12:29:34;15.30;28.40
3037;DHT22;1528;52.550;13.408;2024-03-02T12:32:19;15.40;28.30
3037;DHT22;1528;52.550;13.408;2024-03-02T12:35:06;15.50;28.30
3037;DHT22;1528;52.550;13.408;2024-03-02T12:37:53;15.60;28.30
3037;DHT22;1528;52.550;13.408;2024-03-02T12:40:40;15.70;27.90
3037;DHT22;1528;52.550;13.408;2024-03-02T12:43:30;15.70;27.60
3037;DHT22;1528;52.550;13.408;2024-03-02T12:46:16;15.70;27.30
3037;DHT22;1528;52.550;13.408;2024-03-02T12:49:08;15.80;27.60
3037;DHT22;1528;52.550;13.408;2024-03-02T12:51:54;15.90;27.50
3037;DHT22;1528;52.550;13.408;2024-03-02T12:54:39;16.00;27.10
3037;DHT22;1528;52.550;13.408;2024-03-02T12:57:30;16.10;26.70
3037;DHT22;1528;52.550;13.408;2024-03-02T13:00:18;16.10;26.70
3037;DHT22;1528;52.550;13.408;2024-03-02T13:03:04;16.30;26.90
3037;DHT22;1528;52.550;13.408;2024-03-02T13:05:49;16.40;27.40
3037;DHT22;1528;52.550;13.408;2024-03-02T13:08:35;16.60;26.10
3037;DHT22;1528;52.550;13.408;2024-03-02T13:11:21;16.60;25.90
3037;DHT22;1528;52.550;13.408;2024-03-02T13:14:10;16.70;26.00
3037;DHT22;1528;52.550;13.408;2024-03-02T13:16:57;16.80;25.30
3037;DHT22;1528;52.550;13.408;2024-03-02T13:19:51;16.90;25.60
3037;DHT22;1528;52.550;13.408;2024-03-02T13:22:37;17.10;25.00
3037;DHT22;1528;52.550;13.408;2024-03-02T13:25:23;17.10;25.00
3037;DHT22;1528;52.550;13.408;2024-03-02T13:28:09;17.10;24.70
3037;DHT22;1528;52.550;13.408;2024-03-02T13:30:59;17.00;24.40
3037;DHT22;1528;52.550;13.408;2024-03-02T13:33:45;16.90;24.60
3037;DHT22;1528;52.550;13.408;2024-03-02T13:36:31;16.80;24.30
3037;DHT22;1528;52.550;13.408;2024-03-02T13:39:16;16.70;23.40
3037;DHT22;1528;52.550;13.408;2024-03-02T13:42:03;16.60;23.60
3037;DHT22;1528;52.550;13.408;2024-03-02T13:44:51;16.40;24.30
3037;DHT22;1528;52.550;13.408;2024-03-02T13:47:38;16.20;24.40
3037;DHT22;1528;52.550;13.408;2024-03-02T13:50:23;16.10;24.30
3037;DHT22;1528;52.550;13.408;2024-03-02T13:53:09;15.90;24.10
3037;DHT22;1528;52.550;13.408;2024-03-02T13:55:55;15.90;24.10
3037;DHT22;1528;52.550;13.408;2024-03-02T13:58:40;15.90;25.20
3037;DHT22;1528;52.550;13.408;2024-03-02T14:01:27;15.90;24.80
3037;DHT22;1528;52.550;13.408;2024-03-02T14:04:14;15.80;24.90
3037;DHT22;1528;52.550;13.408;2024-03-02T14:07:00;15.60;25.00
3037;DHT22;1528;52.550;13.408;2024-03-02T14:09:46;15.60;25.30
3037;DHT22;1528;52.550;13.408;2024-03-02T14:12:32;15.70;25.10
3037;DHT22;1528;52.550;13.408;2024-03-02T14:15:17;15.70;24.60
3037;DHT22;1528;52.550;13.408;2024-03-02T14:18:03;15.70;24.30
3037;DHT22;1528;52.550;13.408;2024-03-02T14:20:50;15.60;24.40
3037;DHT22;1528;52.550;13.408;2024-03-02T14:23:36;15.50;24.60
3037;DHT22;1528;52.550;13.408;2024-03-02T14:26:22;15.50;24.90
3037;DHT22;1528;52.550;13.408;2024-03-02T14:29:08;15.40;24.70
3037;DHT22;1528;52.550;13.408;2024-03-02T14:31:54;15.40;24.40
3037;DHT22;1528;52.550;13.408;2024-03-02T14:34:39;15.40;24.60
3037;DHT22;1528;52.550;13.408;2024-03-02T14:37:26;15.30;24.50
3037;DHT22;1528;52.550;13.408;2024-03-02T14:40:12;15.20;24.80
3037;DHT22;1528;52.550;13.408;2024-03-02T14:42:58;15.20;25.00
3037;DHT22;1528;52.550;13.408;2024-03-02T14:45:43;15.20;25.00
3037;DHT22;1528;52.550;13.408;2024-03-02T14:48:29;15.20;24.20
3037;DHT22;1528;52.550;13.408;2024-03-02T14:51:15;15.10;23.90
3037;DHT22;1528;52.550;13.408;2024-03-02T14:54:02;15.10;24.20
3037;DHT22;1528;52.550;13.408;2024-03-02T14:56:48;15.00;24.30
3037;DHT22;1528;52.550;13.408;2024-03-02T14:59:33;15.00;24.70
3037;DHT22;1528;52.550;13.408;2024-03-02T15:02:19;14.80;25.00
3037;DHT22;1528;52.550;13.408;2024-03-02T15:05:05;14.80;25.20
3037;DHT22;1528;52.550;13.408;2024-03-02T15:07:50;14.80;25.40
3037;DHT22;1528;52.550;13.408;2024-03-02T15:10:37;14.70;25.60
3037;DHT22;1528;52.550;13.408;2024-03-02T15:13:23;14.70;25.80
3037;DHT22;1528;52.550;13.408;2024-03-02T15:16:10;14.70;26.10
3037;DHT22;1528;52.550;13.408;2024-03-02T15:18:55;14.60;26.20
3037;DHT22;1528;52.550;13.408;2024-03-02T15:21:41;14.60;26.50
3037;DHT22;1528;52.550;13.408;2024-03-02T15:24:26;14.60;26.90
3037;DHT22;1528;52.550;13.408;2024-03-02T15:27:14;14.50;27.60
3037;DHT22;1528;52.550;13.408;2024-03-02T15:29:59;14.40;26.20
3037;DHT22;1528;52.550;13.408;2024-03-02T15:32:45;14.40;26.30
3037;DHT22;1528;52.550;13.408;2024-03-02T15:35:30;14.40;26.60
3037;DHT22;1528;52.550;13.408;2024-03-02T15:38:16;14.30;26.50
3037;DHT22;1528;52.550;13.408;2024-03-02T15:41:01;14.40;26.40
3037;DHT22;1528;52.550;13.408;2024-03-02T15:43:48;14.40;26.60
3037;DHT22;1528;52.550;13.408;2024-03-02T15:46:34;14.40;26.70
3037;DHT22;1528;52.550;13.408;2024-03-02T15:49:19;14.40;26.80
3037;DHT22;1528;52.550;13.408;2024-03-02T15:52:05;14.60;27.60
3037;DHT22;1528;52.550;13.408;2024-03-02T15:54:51;14.50;27.60
3037;DHT22;1528;52.550;13.408;2024-03-02T15:57:36;14.40;27.80
3037;DHT22;1528;52.550;13.408;2024-03-02T16:00:23;14.30;28.10
3037;DHT22;1528;52.550;13.408;2024-03-02T16:03:08;14.20;28.30
3037;DHT22;1528;52.550;13.408;2024-03-02T16:05:54;14.10;28.50
3037;DHT22;1528;52.550;13.408;2024-03-02T16:08:40;14.00;28.70
3037;DHT22;1528;52.550;13.408;2024-03-02T16:11:25;13.90;28.90
3037;DHT22;1528;52.550;13.408;2024-03-02T16:14:11;13.80;29.20
3037;DHT22;1528;52.550;13.408;2024-03-02T16:17:00;13.70;29.60
3037;DHT22;1528;52.550;13.408;2024-03-02T16:19:45;13.50;29.90
3037;DHT22;1528;52.550;13.408;2024-03-02T16:22:31;13.40;30.10
3037;DHT22;1528;52.550;13.408;2024-03-02T16:25:17;13.40;30.40
3037;DHT22;1528;52.550;13.408;2024-03-02T16:28:03;13.40;30.80
3037;DHT22;1528;52.550;13.408;2024-03-02T16:30:48;13.30;31.10
3037;DHT22;1528;52.550;13.408;2024-03-02T16:33:35;13.20;31.40
3037;DHT22;1528;52.550;13.408;2024-03-02T16:36:21;13.10;32.20
3037;DHT22;1528;52.550;13.408;2024-03-02T16:39:06;13.10;32.40
3037;DHT22;1528;52.550;13.408;2024-03-02T16:41:52;13.10;32.00
3037;DHT22;1528;52.550;13.408;2024-03-02T16:44:38;13.00;32.30
3037;DHT22;1528;52.550;13.408;2024-03-02T16:47:24;13.00;32.50
3037;DHT22;1528;52.550;13.408;2024-03-02T16:50:12;13.00;32.60
3037;DHT22;1528;52.550;13.408;2024-03-02T16:52:57;12.90;32.60
3037;DHT22;1528;52.550;13.408;2024-03-02T16:55:43;12.90;32.90
3037;DHT22;1528;52.550;13.408;2024-03-02T16:58:28;12.90;33.00
3037;DHT22;1528;52.550;13.408;2024-03-02T17:01:14;12.80;32.90
3037;DHT22;1528;52.550;13.408;2024-03-02T17:03:59;12.80;33.80
3037;DHT22;1528;52.550;13.408;2024-03-02T17:06:46;12.80;33.20
3037;DHT22;1528;52.550;13.408;2024-03-02T17:09:32;12.80;33.40
3037;DHT22;1528;52.550;13.408;2024-03-02T17:12:18;12.70;33.60
3037;DHT22;1528;52.550;13.408;2024-03-02T17:15:04;12.70;33.70
3037;DHT22;1528;52.550;13.408;2024-03-02T17:17:50;12.70;33.80
3037;DHT22;1528;52.550;13.408;2024-03-02T17:20:35;12.60;34.00
3037;DHT22;1528;52.550;13.408;2024-03-02T17:23:22;12.60;34.20
3037;DHT22;1528;52.550;13.408;2024-03-02T17:26:08;12.60;34.20
3037;DHT22;1528;52.550;13.408;2024-03-02T17:28:53;12.60;34.30
3037;DHT22;1528;52.550;13.408;2024-03-02T17:31:40;12.60;34.40
3037;DHT22;1528;52.550;13.408;2024-03-02T17:34:25;12.60;34.60
3037;DHT22;1528;52.550;13.408;2024-03-02T17:37:12;12.50;34.70
3037;DHT22;1528;52.550;13.408;2024-03-02T17:39:59;12.50;35.40
3037;DHT22;1528;52.550;13.408;2024-03-02T17:42:45;12.50;34.90
3037;DHT22;1528;52.550;13.408;2024-03-02T17:45:30;12.50;35.00
3037;DHT22;1528;52.550;13.408;2024-03-02T17:48:15;12.50;35.30
3037;DHT22;1528;52.550;13.408;2024-03-02T17:51:01;12.40;35.20
3037;DHT22;1528;52.550;13.408;2024-03-02T17:53:47;12.40;35.50
3037;DHT22;1528;52.550;13.408;2024-03-02T17:56:37;12.40;35.40